Time;durP1;ratioP1;P1;durP2;ratioP2;P2;SDS_P1;SDS_P2;PMS_P1;PMS_P2;Temp;Humidity;BMP_temperature;BMP_pressure;BME280_temperature;BME280_humidity;BME280_pressure;Samples;Min_cycle;Max_cycle;Signal;HPM_P1;HPM_P2
2022/10/22 00:00:45;;;;;;;9.10;5.40;;;;;;;6.72;100.00;99192.98;100523;1342;23313;-33
2022/10/22 00:03:11;;;;;;;16.50;8.90;;;;;;;6.69;100.00;99191.77;100587;1334;24293;-33
2022/10/22 00:05:37;;;;;;;16.70;10.10;;;;;;;6.67;100.00;99187.41;100468;1342;24366;-33
2022/10/22 00:08:02;;;;;;;8.10;6.20;;;;;;;6.63;100.00;99183.70;100506;1334;24304;-36
2022/10/22 00:10:28;;;;;;;9.30;6.70;;;;;;;6.60;100.00;99179.98;100528;1342;22974;-35
2022/10/22 00:12:53;;;;;;;3.00;2.40;;;;;;;6.53;100.00;99175.25;100653;1336;22543;-36
2022/10/22 00:15:19;;;;;;;13.80;7.80;;;;;;;6.51;100.00;99174.02;100519;1334;23125;-36
2022/10/22 00:17:44;;;;;;;9.30;5.10;;;;;;;6.48;100.00;99174.55;100447;1328;22997;-33
2022/10/22 00:20:10;;;;;;;6.40;5.30;;;;;;;6.46;100.00;99179.96;100537;1334;23250;-36
2022/10/22 00:22:36;;;;;;;14.20;7.50;;;;;;;6.45;100.00;99177.43;100559;1327;22507;-32
2022/10/22 00:25:01;;;;;;;11.90;8.20;;;;;;;6.48;100.00;99178.55;100500;1330;22763;-36
2022/10/22 00:27:27;;;;;;;9.80;6.30;;;;;;;6.47;100.00;99178.46;100507;1340;23209;-36
2022/10/22 00:29:52;;;;;;;13.90;9.10;;;;;;;6.43;100.00;99180.65;100409;1342;22758;-36
2022/10/22 00:32:18;;;;;;;16.40;6.90;;;;;;;6.41;100.00;99186.77;100563;1340;25785;-36
2022/10/22 00:34:43;;;;;;;9.10;6.30;;;;;;;6.38;100.00;99185.54;100572;1333;25162;-33
2022/10/22 00:37:09;;;;;;;12.70;6.70;;;;;;;6.34;100.00;99187.56;100446;1334;24279;-33
2022/10/22 00:39:34;;;;;;;9.40;6.20;;;;;;;6.31;100.00;99191.65;100596;1340;22758;-37
2022/10/22 00:42:00;;;;;;;11.90;6.00;;;;;;;6.28;100.00;99190.43;100544;1333;25395;-34
2022/10/22 00:44:32;;;;;;;12.00;6.70;;;;;;;6.24;100.00;99187.41;100496;1334;24693;-35
2022/10/22 00:46:58;;;;;;;13.50;5.90;;;;;;;6.23;100.00;99184.41;100552;1327;24309;-32
2022/10/22 00:49:23;;;;;;;11.90;7.60;;;;;;;6.23;100.00;99180.15;100498;1342;23105;-31
2022/10/22 00:51:49;;;;;;;8.50;5.90;;;;;;;6.23;100.00;99182.55;100596;1342;22748;-32
2022/10/22 00:54:14;;;;;;;8.90;5.80;;;;;;;6.29;100.00;99187.66;100418;1334;24379;-35
2022/10/22 00:56:40;;;;;;;13.80;8.80;;;;;;;6.37;100.00;99188.89;100491;1334;24594;-32
2022/10/22 00:59:05;;;;;;;14.20;8.10;;;;;;;6.46;100.00;99191.33;100470;1341;23004;-32
2022/10/22 01:01:31;;;;;;;10.00;6.00;;;;;;;6.58;100.00;99197.35;100502;1339;24963;-34
2022/10/22 01:03:57;;;;;;;11.80;7.60;;;;;;;6.65;100.00;99194.19;100504;1341;23102;-34
2022/10/22 01:06:26;;;;;;;11.20;8.20;;;;;;;6.76;100.00;99192.39;100574;1340;24498;-33
2022/10/22 01:08:55;;;;;;;13.90;7.70;;;;;;;6.89;100.00;99189.07;100563;1340;24494;-33
2022/10/22 01:11:24;;;;;;;14.40;8.20;;;;;;;7.00;100.00;99179.95;100518;1342;23220;-37
2022/10/22 01:13:54;;;;;;;11.00;7.90;;;;;;;7.10;100.00;99174.18;100487;1342;24484;-33
2022/10/22 01:16:29;;;;;;;8.10;5.10;;;;;;;7.17;100.00;99167.89;100614;1340;24368;-37
2022/10/22 01:18:58;;;;;;;12.30;8.20;;;;;;;7.24;100.00;99160.48;100541;1334;22750;-34
2022/10/22 01:21:29;;;;;;;10.00;7.40;;;;;;;7.31;100.00;99158.88;100538;1327;23207;-37
2022/10/22 01:23:57;;;;;;;15.00;7.30;;;;;;;7.39;100.00;99157.19;100507;1334;23221;-35
2022/10/22 01:26:34;;;;;;;13.90;9.40;;;;;;;7.45;100.00;99144.00;100518;1334;24337;-37
2022/10/22 01:28:59;;;;;;;11.60;7.30;;;;;;;7.49;100.00;99127.37;100571;1342;25330;-33
2022/10/22 01:31:28;;;;;;;12.20;7.20;;;;;;;7.51;100.00;99123.02;100474;1340;24443;-35
2022/10/22 01:33:53;;;;;;;13.30;7.20;;;;;;;7.56;100.00;99123.30;100580;1337;22850;-33
2022/10/22 01:36:19;;;;;;;11.10;6.90;;;;;;;7.60;100.00;99118.55;100548;1342;23109;-36
2022/10/22 01:38:44;;;;;;;10.30;6.50;;;;;;;7.64;100.00;99124.09;100525;1342;22739;-36
2022/10/22 01:41:10;;;;;;;11.60;6.90;;;;;;;7.65;100.00;99118.95;100435;1340;23235;-33
2022/10/22 01:43:35;;;;;;;9.40;6.00;;;;;;;7.71;100.00;99118.42;100523;1342;23091;-34
2022/10/22 01:46:02;;;;;;;8.60;5.60;;;;;;;7.75;100.00;99122.30;100561;1340;24798;-34
2022/10/22 01:48:33;;;;;;;11.00;6.50;;;;;;;7.77;100.00;99124.17;100535;1341;24543;-34
2022/10/22 01:51:06;;;;;;;8.70;5.40;;;;;;;7.78;100.00;99118.86;100482;1334;24382;-34
2022/10/22 01:53:52;;;;;;;9.20;5.40;;;;;;;7.79;100.00;99108.04;100515;1340;22739;-37
2022/10/22 01:56:24;;;;;;;5.40;4.80;;;;;;;7.84;100.00;99113.00;100485;1337;22878;-37
2022/10/22 01:58:57;;;;;;;9.50;5.00;;;;;;;7.89;100.00;99119.52;100625;1342;23103;-35
2022/10/22 02:01:29;;;;;;;7.50;5.70;;;;;;;7.91;100.00;99124.55;100540;1334;24402;-35
2022/10/22 02:04:01;;;;;;;9.90;7.40;;;;;;;7.94;100.00;99127.41;100604;1334;25703;-32
2022/10/22 02:06:27;;;;;;;14.80;7.90;;;;;;;7.99;100.00;99124.59;100551;1334;22941;-33
2022/10/22 02:08:53;;;;;;;9.80;6.50;;;;;;;8.01;100.00;99126.27;100491;1334;24382;-33
2022/10/22 02:11:19;;;;;;;12.40;6.50;;;;;;;8.02;100.00;99119.36;100455;1334;23058;-33
2022/10/22 02:13:47;;;;;;;4.90;4.20;;;;;;;7.99;100.00;99100.36;100480;1340;22860;-37
2022/10/22 02:16:17;;;;;;;10.50;7.90;;;;;;;8.00;100.00;99094.48;100505;1334;22746;-34
2022/10/22 02:18:44;;;;;;;8.50;6.30;;;;;;;7.99;100.00;99080.82;100520;1340;23219;-34
2022/10/22 02:21:10;;;;;;;10.30;7.00;;;;;;;7.98;100.00;99069.27;100582;1334;24307;-37
2022/10/22 02:23:35;;;;;;;7.30;6.40;;;;;;;7.99;100.00;99078.05;100495;1340;24302;-33
2022/10/22 02:26:06;;;;;;;15.00;6.60;;;;;;;7.98;100.00;99080.11;100560;1341;24500;-39
2022/10/22 02:28:36;;;;;;;10.90;6.30;;;;;;;8.00;100.00;99095.91;100590;1340;24359;-33
2022/10/22 02:31:08;;;;;;;13.00;6.40;;;;;;;8.04;100.00;99106.46;100497;1334;23020;-34
2022/10/22 02:33:36;;;;;;;13.50;6.30;;;;;;;8.06;100.00;99098.77;100507;1342;24433;-37
2022/10/22 02:36:02;;;;;;;4.70;3.70;;;;;;;8.11;100.00;99097.35;100602;1334;25295;-37
2022/10/22 02:38:28;;;;;;;9.40;7.20;;;;;;;8.12;100.00;99094.71;100552;1340;24311;-34
2022/10/22 02:40:53;;;;;;;6.90;3.50;;;;;;;8.15;100.00;99099.15;100572;1334;23403;-37
2022/10/22 02:43:19;;;;;;;8.10;4.60;;;;;;;8.12;100.00;99097.23;100532;1342;22874;-37
2022/10/22 02:45:45;;;;;;;9.30;5.60;;;;;;;8.13;100.00;99098.80;100520;1340;22812;-34
2022/10/22 02:48:10;;;;;;;13.80;7.40;;;;;;;8.12;100.00;99097.77;100472;1342;22897;-33
2022/10/22 02:50:36;;;;;;;6.50;5.60;;;;;;;8.11;100.00;99093.44;100567;1342;22506;-34
2022/10/22 02:53:02;;;;;;;8.30;6.20;;;;;;;8.13;100.00;99091.44;100620;1341;22505;-34
2022/10/22 02:55:27;;;;;;;8.60;5.80;;;;;;;8.16;100.00;99095.13;100542;1340;22747;-37
2022/10/22 02:57:53;;;;;;;15.20;8.90;;;;;;;8.17;100.00;99098.06;100565;1341;23055;-37
2022/10/22 03:00:19;;;;;;;9.60;6.30;;;;;;;8.18;100.00;99105.92;100550;1342;24497;-34
2022/10/22 03:02:45;;;;;;;15.00;6.30;;;;;;;8.20;100.00;99102.86;100499;1334;23299;-31
2022/10/22 03:05:10;;;;;;;8.30;6.60;;;;;;;8.22;100.00;99098.08;100527;1342;24351;-35
2022/10/22 03:07:36;;;;;;;9.40;5.40;;;;;;;8.23;100.00;99090.88;100560;1340;24875;-33
2022/10/22 03:10:01;;;;;;;7.50;5.60;;;;;;;8.25;100.00;99092.88;100459;1342;23232;-33
2022/10/22 03:12:27;;;;;;;8.70;6.80;;;;;;;8.23;100.00;99098.12;100576;1341;23094;-38
2022/10/22 03:14:52;;;;;;;9.00;4.80;;;;;;;8.24;100.00;99100.24;100559;1341;23110;-32
2022/10/22 03:17:18;;;;;;;6.10;5.10;;;;;;;8.26;100.00;99099.84;100540;1341;23447;-36
2022/10/22 03:19:43;;;;;;;7.60;5.90;;;;;;;8.29;100.00;99100.04;100521;1342;26608;-33
2022/10/22 03:22:13;;;;;;;24.00;7.50;;;;;;;8.33;100.00;99099.65;100389;1340;22875;-35
2022/10/22 03:24:43;;;;;;;13.00;6.60;;;;;;;8.40;100.00;99101.88;100653;1327;25233;-36
2022/10/22 03:27:11;;;;;;;6.20;3.50;;;;;;;8.29;100.00;99104.29;100538;1342;22525;-33
2022/10/22 03:29:38;;;;;;;7.30;6.00;;;;;;;8.28;100.00;99103.46;100546;1342;25289;-36
2022/10/22 03:32:03;;;;;;;12.40;6.40;;;;;;;8.24;100.00;99094.39;100558;1341;22503;-33
2022/10/22 03:34:29;;;;;;;12.40;7.20;;;;;;;8.22;100.00;99084.29;100606;1333;24453;-33
2022/10/22 03:36:56;;;;;;;11.50;7.90;;;;;;;8.22;100.00;99075.36;100530;1331;22755;-36
2022/10/22 03:39:21;;;;;;;18.70;8.70;;;;;;;8.14;100.00;99066.13;100599;1340;23183;-34
2022/10/22 03:41:47;;;;;;;12.00;6.40;;;;;;;8.10;100.00;99063.13;100635;1334;23300;-36
2022/10/22 03:44:13;;;;;;;14.10;6.30;;;;;;;8.06;100.00;99062.70;100516;1334;24377;-33
2022/10/22 03:46:39;;;;;;;10.60;6.60;;;;;;;7.99;100.00;99060.90;100531;1340;24460;-35
2022/10/22 03:49:04;;;;;;;7.30;5.10;;;;;;;7.94;100.00;99068.83;100539;1334;25988;-33
2022/10/22 03:51:30;;;;;;;11.10;7.10;;;;;;;7.89;100.00;99071.73;100509;1342;25379;-36
2022/10/22 03:53:56;;;;;;;6.10;5.10;;;;;;;7.86;100.00;99070.45;100520;1342;24449;-36
2022/10/22 03:56:22;;;;;;;11.20;6.10;;;;;;;7.85;100.00;99081.27;100470;1338;25739;-33
2022/10/22 03:58:48;;;;;;;11.40;7.20;;;;;;;7.84;100.00;99078.41;100506;1334;23118;-34
2022/10/22 04:01:13;;;;;;;8.70;6.10;;;;;;;7.84;100.00;99085.20;100475;1334;23109;-36
2022/10/22 04:03:39;;;;;;;8.90;6.00;;;;;;;7.82;100.00;99085.99;100418;1340;24344;-37
2022/10/22 04:06:08;;;;;;;8.30;5.70;;;;;;;7.83;100.00;99083.00;100555;1334;24494;-34
2022/10/22 04:08:33;;;;;;;8.60;7.30;;;;;;;7.90;100.00;99084.44;100505;1339;23216;-33
2022/10/22 04:10:59;;;;;;;14.60;5.30;;;;;;;7.88;100.00;99081.63;100523;1334;23104;-33
2022/10/22 04:13:25;;;;;;;14.70;7.30;;;;;;;7.90;100.00;99085.64;100593;1340;24475;-34
2022/10/22 04:15:51;;;;;;;10.60;7.40;;;;;;;7.96;100.00;99085.47;100608;1334;24382;-33
2022/10/22 04:18:18;;;;;;;14.40;7.70;;;;;;;7.98;100.00;99083.48;100497;1335;22760;-37
2022/10/22 04:20:43;;;;;;;7.00;6.00;;;;;;;7.99;100.00;99080.90;100472;1342;23225;-33
2022/10/22 04:23:09;;;;;;;10.20;6.80;;;;;;;8.00;100.00;99083.55;100525;1334;23100;-37
2022/10/22 04:25:35;;;;;;;10.70;6.70;;;;;;;7.98;100.00;99091.00;100533;1342;22505;-34
2022/10/22 04:28:01;;;;;;;9.90;8.30;;;;;;;8.00;100.00;99092.48;100554;1334;23358;-34
2022/10/22 04:30:26;;;;;;;11.00;7.40;;;;;;;8.00;100.00;99089.55;100462;1342;24359;-36
2022/10/22 04:32:52;;;;;;;16.90;6.70;;;;;;;8.02;100.00;99085.62;100434;1336;24469;-34
2022/10/22 04:35:18;;;;;;;11.50;6.80;;;;;;;8.02;100.00;99090.51;100544;1337;23111;-36
2022/10/22 04:37:43;;;;;;;17.80;7.40;;;;;;;7.97;100.00;99084.28;100498;1334;22878;-33
2022/10/22 04:40:09;;;;;;;12.10;7.60;;;;;;;7.97;100.00;99083.01;100626;1334;22887;-37
2022/10/22 04:42:35;;;;;;;9.50;7.40;;;;;;;7.95;100.00;99080.77;100515;1342;25284;-34
2022/10/22 04:45:00;;;;;;;8.70;6.50;;;;;;;7.87;100.00;99064.96;100506;1325;22708;-36
2022/10/22 04:47:26;;;;;;;9.70;6.70;;;;;;;7.89;100.00;99062.66;100509;1342;23103;-33
2022/10/22 04:49:52;;;;;;;18.50;9.90;;;;;;;7.89;100.00;99066.74;100567;1341;22583;-36
2022/10/22 04:52:17;;;;;;;11.60;7.10;;;;;;;7.91;100.00;99071.86;100498;1340;23281;-33
2022/10/22 04:54:42;;;;;;;19.10;9.50;;;;;;;7.87;100.00;99063.02;100388;1336;22713;-33
2022/10/22 04:57:08;;;;;;;6.60;3.80;;;;;;;7.86;100.00;99062.98;100537;1334;23177;-33
2022/10/22 04:59:34;;;;;;;14.20;9.30;;;;;;;7.85;100.00;99057.04;100477;1340;23106;-37
2022/10/22 05:01:59;;;;;;;8.20;6.00;;;;;;;7.85;100.00;99052.80;100569;1342;22757;-36
2022/10/22 05:04:25;;;;;;;5.90;4.80;;;;;;;7.86;100.00;99056.10;100541;1342;25694;-36
2022/10/22 05:06:51;;;;;;;13.20;5.30;;;;;;;7.84;100.00;99057.48;100520;1334;23102;-33
2022/10/22 05:09:18;;;;;;;8.30;7.00;;;;;;;7.86;100.00;99053.05;100517;1334;22866;-36
2022/10/22 05:11:47;;;;;;;6.90;5.80;;;;;;;7.87;100.00;99052.00;100554;1334;22508;-39
2022/10/22 05:14:14;;;;;;;13.30;8.20;;;;;;;7.91;100.00;99073.45;100567;1342;25397;-35
2022/10/22 05:16:39;;;;;;;10.70;7.00;;;;;;;7.95;100.00;99081.88;100551;1340;22715;-34
2022/10/22 05:19:05;;;;;;;13.60;9.20;;;;;;;7.96;100.00;99084.73;100567;1340;22634;-36
2022/10/22 05:21:31;;;;;;;10.70;5.80;;;;;;;7.99;100.00;99098.38;100615;1341;22747;-34
2022/10/22 05:23:58;;;;;;;14.50;8.10;;;;;;;7.96;100.00;99111.72;100457;1334;22511;-36
2022/10/22 05:26:24;;;;;;;7.00;5.10;;;;;;;7.96;100.00;99098.35;100441;1342;23106;-34
2022/10/22 05:28:50;;;;;;;15.70;8.40;;;;;;;7.97;100.00;99097.48;100591;1338;24292;-36
2022/10/22 05:31:17;;;;;;;14.20;7.50;;;;;;;7.98;100.00;99090.56;100527;1341;24370;-37
2022/10/22 05:33:42;;;;;;;10.20;6.50;;;;;;;7.95;100.00;99094.91;100567;1342;24485;-36
2022/10/22 05:36:11;;;;;;;12.90;7.70;;;;;;;7.91;100.00;99096.04;100561;1341;22932;-36
2022/10/22 05:38:37;;;;;;;16.10;8.80;;;;;;;7.94;100.00;99081.66;100581;1342;23093;-36
2022/10/22 05:41:04;;;;;;;14.50;6.90;;;;;;;7.92;100.00;99080.98;100522;1340;22504;-33
2022/10/22 05:43:30;;;;;;;16.60;10.90;;;;;;;7.90;100.00;99079.35;100586;1342;24617;-36
2022/10/22 05:45:56;;;;;;;25.70;8.00;;;;;;;7.88;100.00;99076.45;100561;1342;22636;-33
2022/10/22 05:48:21;;;;;;;14.40;9.80;;;;;;;7.92;100.00;99076.50;100605;1340;24379;-33
2022/10/22 05:50:49;;;;;;;12.70;8.60;;;;;;;7.98;100.00;99083.48;100568;1340;24247;-36
2022/10/22 05:53:16;;;;;;;12.10;6.20;;;;;;;8.03;100.00;99082.34;100584;1341;23324;-33
2022/10/22 05:55:41;;;;;;;9.00;6.70;;;;;;;8.01;100.00;99090.20;100591;1327;25599;-36
2022/10/22 05:58:08;;;;;;;8.70;6.00;;;;;;;8.02;100.00;99095.50;100475;1342;24584;-33
2022/10/22 06:00:33;;;;;;;13.40;5.90;;;;;;;8.03;100.00;99102.33;100550;1342;22747;-35
2022/10/22 06:02:59;;;;;;;10.80;6.70;;;;;;;8.18;100.00;99113.13;100489;1342;22715;-37
2022/10/22 06:05:25;;;;;;;9.00;6.70;;;;;;;8.28;100.00;99122.40;100608;1334;22888;-34
2022/10/22 06:07:50;;;;;;;15.40;7.90;;;;;;;8.33;100.00;99119.69;100509;1334;22746;-37
2022/10/22 06:10:18;;;;;;;8.70;6.70;;;;;;;8.27;100.00;99133.27;100532;1342;24230;-34
2022/10/22 06:12:43;;;;;;;8.70;6.30;;;;;;;8.30;100.00;99149.63;100554;1334;22820;-34
2022/10/22 06:15:11;;;;;;;9.10;6.70;;;;;;;8.44;100.00;99154.74;100554;1332;22894;-36
2022/10/22 06:17:36;;;;;;;13.40;8.20;;;;;;;8.51;100.00;99160.43;100532;1341;22624;-36
2022/10/22 06:20:02;;;;;;;29.10;6.30;;;;;;;8.48;100.00;99162.95;100530;1340;22750;-37
2022/10/22 06:22:28;;;;;;;13.60;7.90;;;;;;;8.50;100.00;99162.52;100525;1342;23228;-37
2022/10/22 06:24:53;;;;;;;10.20;6.70;;;;;;;8.39;100.00;99165.98;100669;1323;22585;-37
2022/10/22 06:27:20;;;;;;;13.30;7.60;;;;;;;8.40;100.00;99178.74;100698;1334;22710;-34
2022/10/22 06:29:46;;;;;;;9.60;6.40;;;;;;;8.41;100.00;99177.86;100691;1334;22760;-33
2022/10/22 06:32:12;;;;;;;9.30;5.70;;;;;;;8.45;100.00;99168.65;100728;1339;24361;-37
2022/10/22 06:34:38;;;;;;;10.10;6.00;;;;;;;8.46;100.00;99165.52;100813;1338;24304;-34
2022/10/22 06:37:03;;;;;;;10.90;6.90;;;;;;;8.51;100.00;99167.10;100735;1339;22745;-34
2022/10/22 06:39:29;;;;;;;18.50;7.60;;;;;;;8.51;100.00;99168.71;100770;1339;24372;-33
2022/10/22 06:41:55;;;;;;;10.30;5.60;;;;;;;8.56;100.00;99164.64;100820;1331;26217;-37
2022/10/22 06:44:20;;;;;;;8.50;5.50;;;;;;;8.57;100.00;99152.71;100813;1338;22894;-33
2022/10/22 06:46:50;;;;;;;12.50;8.90;;;;;;;8.61;100.00;99147.58;100716;1331;24830;-33
2022/10/22 06:49:16;;;;;;;14.60;7.30;;;;;;;8.72;100.00;99149.29;100828;1339;24390;-36
2022/10/22 06:51:42;;;;;;;8.50;5.60;;;;;;;8.78;100.00;99144.77;100715;1339;23048;-33
2022/10/22 06:54:08;;;;;;;9.60;7.00;;;;;;;8.81;100.00;99145.87;100705;1331;23098;-36
2022/10/22 06:56:33;;;;;;;11.70;6.60;;;;;;;8.93;100.00;99146.02;100794;1331;22563;-36
2022/10/22 06:58:59;;;;;;;12.60;7.50;;;;;;;9.05;100.00;99141.05;100763;1331;24908;-37
2022/10/22 07:01:27;;;;;;;13.50;7.20;;;;;;;9.21;100.00;99142.09;100777;1339;23328;-36
2022/10/22 07:03:53;;;;;;;12.30;6.80;;;;;;;9.32;100.00;99150.68;100763;1339;23213;-33
2022/10/22 07:06:19;;;;;;;4.90;4.10;;;;;;;9.36;100.00;99148.73;100653;1339;22883;-34
2022/10/22 07:08:44;;;;;;;7.40;5.50;;;;;;;9.38;100.00;99141.48;100819;1339;22744;-36
2022/10/22 07:11:12;;;;;;;20.40;8.80;;;;;;;9.50;100.00;99143.80;100816;1331;24265;-34
2022/10/22 07:13:37;;;;;;;17.80;8.20;;;;;;;9.58;100.00;99139.48;100815;1339;24112;-33
2022/10/22 07:16:03;;;;;;;10.00;6.00;;;;;;;9.61;100.00;99147.33;100726;1331;24311;-34
2022/10/22 07:18:29;;;;;;;7.30;6.00;;;;;;;9.71;100.00;99146.98;100711;1339;24555;-36
2022/10/22 07:20:55;;;;;;;10.20;5.30;;;;;;;9.82;100.00;99145.73;100650;1325;22779;-34
2022/10/22 07:23:20;;;;;;;11.40;5.20;;;;;;;9.96;100.00;99147.50;100763;1339;23222;-37
2022/10/22 07:25:46;;;;;;;10.10;7.10;;;;;;;10.06;100.00;99155.68;100790;1331;22882;-37
2022/10/22 07:28:12;;;;;;;7.60;5.90;;;;;;;10.15;100.00;99151.59;100773;1339;23232;-36
2022/10/22 07:30:38;;;;;;;5.90;4.90;;;;;;;10.28;100.00;99144.06;100728;1339;24340;-36
2022/10/22 07:33:04;;;;;;;16.50;6.20;;;;;;;10.43;100.00;99149.20;100385;1339;476668;-33
2022/10/22 07:35:29;;;;;;;14.00;6.20;;;;;;;10.48;100.00;99155.99;100796;1331;24371;-36
2022/10/22 07:37:55;;;;;;;17.50;7.80;;;;;;;10.52;100.00;99157.95;100732;1336;23216;-33
2022/10/22 07:40:20;;;;;;;15.00;6.70;;;;;;;10.51;99.99;99165.92;100796;1331;22884;-33
2022/10/22 07:42:46;;;;;;;13.10;6.30;;;;;;;10.55;99.79;99170.27;100721;1336;23272;-36
2022/10/22 07:45:12;;;;;;;11.20;6.30;;;;;;;10.51;99.48;99160.80;100702;1339;24597;-37
2022/10/22 07:47:37;;;;;;;15.30;6.90;;;;;;;10.49;99.81;99155.34;100745;1339;23018;-36
2022/10/22 07:50:03;;;;;;;8.50;5.50;;;;;;;10.49;99.71;99167.20;100786;1339;22496;-34
2022/10/22 07:52:29;;;;;;;12.40;7.00;;;;;;;10.59;99.49;99173.84;100820;1331;22715;-32
2022/10/22 07:54:54;;;;;;;8.90;6.60;;;;;;;10.57;99.99;99178.79;100765;1330;22519;-33
2022/10/22 07:57:20;;;;;;;12.20;8.10;;;;;;;10.65;99.24;99171.98;100722;1330;22507;-33
2022/10/22 07:59:45;;;;;;;7.00;6.10;;;;;;;10.64;98.92;99166.83;100659;1339;23108;-36
2022/10/22 08:02:11;;;;;;;14.10;6.80;;;;;;;10.65;98.65;99167.61;100649;1339;23214;-37
2022/10/22 08:04:37;;;;;;;5.80;5.20;;;;;;;10.67;98.64;99164.73;100704;1324;22901;-34
2022/10/22 08:07:03;;;;;;;9.80;6.60;;;;;;;10.66;98.45;99159.85;100712;1338;23180;-33
2022/10/22 08:09:29;;;;;;;9.60;5.90;;;;;;;10.62;99.23;99164.71;100826;1339;22781;-35
2022/10/22 08:11:54;;;;;;;9.30;6.50;;;;;;;10.68;99.33;99171.39;100787;1339;24319;-33
2022/10/22 08:14:20;;;;;;;25.90;7.80;;;;;;;10.67;99.79;99181.95;100598;1334;23105;-36
2022/10/22 08:16:45;;;;;;;15.60;7.90;;;;;;;10.68;100.00;99185.38;100779;1331;22512;-32
2022/10/22 08:19:12;;;;;;;13.30;7.70;;;;;;;10.71;100.00;99180.85;100683;1339;23087;-35
2022/10/22 08:21:38;;;;;;;12.10;6.60;;;;;;;10.76;100.00;99178.91;100828;1331;23011;-36
2022/10/22 08:24:05;;;;;;;10.20;7.10;;;;;;;10.79;100.00;99178.98;100754;1332;23087;-33
2022/10/22 08:26:31;;;;;;;7.10;6.10;;;;;;;10.82;100.00;99172.11;100731;1331;24520;-35
2022/10/22 08:28:57;;;;;;;13.20;8.00;;;;;;;10.92;100.00;99159.82;100725;1331;22758;-33
2022/10/22 08:31:23;;;;;;;14.50;7.70;;;;;;;11.03;100.00;99155.85;100655;1339;22712;-36
2022/10/22 08:33:49;;;;;;;11.40;6.80;;;;;;;11.07;100.00;99150.58;100659;1339;22885;-36
2022/10/22 08:36:14;;;;;;;14.50;7.40;;;;;;;11.12;100.00;99156.36;100731;1331;22869;-32
2022/10/22 08:38:40;;;;;;;14.90;7.20;;;;;;;11.21;100.00;99162.91;100711;1331;22760;-36
2022/10/22 08:41:10;;;;;;;11.30;5.80;;;;;;;11.30;100.00;99160.75;100700;1339;23113;-33
2022/10/22 08:43:37;;;;;;;26.00;8.10;;;;;;;11.35;100.00;99162.04;100649;1339;23359;-37
2022/10/22 08:46:09;;;;;;;19.30;8.60;;;;;;;11.46;100.00;99165.17;100755;1331;24373;-37
2022/10/22 08:48:41;;;;;;;7.10;5.40;;;;;;;11.53;99.99;99161.77;100639;1333;23109;-34
2022/10/22 08:51:10;;;;;;;18.10;6.90;;;;;;;11.63;98.83;99166.80;100799;1338;22980;-37
2022/10/22 08:53:40;;;;;;;9.90;4.70;;;;;;;11.63;97.76;99169.86;100806;1336;22712;-34
2022/10/22 08:56:06;;;;;;;6.90;5.10;;;;;;;11.55;98.06;99173.35;100809;1339;23239;-37
2022/10/22 08:58:37;;;;;;;7.30;5.10;;;;;;;11.47;99.41;99177.62;100630;1339;23087;-34
2022/10/22 09:01:08;;;;;;;9.90;6.60;;;;;;;11.52;99.53;99172.83;100730;1331;22887;-37
2022/10/22 09:03:37;;;;;;;7.70;5.30;;;;;;;11.50;99.16;99176.52;100773;1339;24326;-38
2022/10/22 09:06:06;;;;;;;8.90;5.50;;;;;;;11.54;99.37;99179.81;100823;1339;22815;-35
2022/10/22 09:08:32;;;;;;;9.30;6.90;;;;;;;11.59;98.89;99179.90;100733;1325;24369;-33
2022/10/22 09:11:05;;;;;;;14.40;6.20;;;;;;;11.62;98.82;99185.15;100718;1339;23111;-36
2022/10/22 09:13:30;;;;;;;4.70;3.30;;;;;;;11.59;98.59;99188.73;100781;1339;24429;-36
2022/10/22 09:15:59;;;;;;;10.10;7.30;;;;;;;11.59;98.65;99196.70;100812;1339;24810;-33
2022/10/22 09:18:33;;;;;;;12.10;7.10;;;;;;;11.65;98.33;99200.25;100752;1334;24451;-36
2022/10/22 09:21:06;;;;;;;7.40;6.50;;;;;;;11.76;97.54;99204.80;100805;1339;22505;-36
2022/10/22 09:23:33;;;;;;;;;;;;;;;11.63;98.61;99202.90;100785;1330;22744;-36
2022/10/22 09:25:59;;;;;;;8.20;5.00;;;;;;;11.71;98.56;99201.70;100767;1339;23893;-42
2022/10/22 09:28:25;;;;;;;8.30;5.80;;;;;;;11.77;98.50;99199.25;100774;1338;24382;-37
2022/10/22 09:30:50;;;;;;;11.10;5.90;;;;;;;11.74;98.11;99196.02;100693;1337;22538;-37
2022/10/22 09:33:18;;;;;;;10.30;5.80;;;;;;;11.81;97.93;99194.86;100767;1329;24588;-34
2022/10/22 09:35:50;;;;;;;8.00;5.80;;;;;;;11.81;97.56;99192.91;100747;1331;22997;-35
2022/10/22 09:38:16;;;;;;;7.80;5.90;;;;;;;11.78;97.63;99196.27;100778;1339;22674;-37
2022/10/22 09:40:44;;;;;;;6.50;4.30;;;;;;;11.79;97.98;99201.31;100827;1338;22862;-34
2022/10/22 09:43:11;;;;;;;9.20;7.70;;;;;;;11.85;97.83;99203.14;100801;1339;24365;-37
2022/10/22 09:45:37;;;;;;;6.20;4.90;;;;;;;11.86;97.61;99203.21;100781;1337;23924;-34
2022/10/22 09:48:11;;;;;;;8.50;5.50;;;;;;;11.86;98.80;99207.36;100780;1339;22521;-36
2022/10/22 09:50:40;;;;;;;7.30;6.00;;;;;;;11.95;98.75;99207.40;100757;1331;23100;-32
2022/10/22 09:53:10;;;;;;;9.20;7.30;;;;;;;12.03;99.03;99206.64;100811;1331;24302;-35
2022/10/22 09:55:38;;;;;;;7.70;6.30;;;;;;;12.13;98.36;99201.14;100829;1339;24008;-35
2022/10/22 09:58:04;;;;;;;6.20;5.40;;;;;;;12.11;98.14;99196.55;100643;1336;22904;-35
2022/10/22 10:00:30;;;;;;;12.60;7.70;;;;;;;12.17;98.69;99191.55;100794;1330;22659;-35
2022/10/22 10:02:56;;;;;;;7.90;4.60;;;;;;;12.23;97.88;99192.66;100569;1339;23110;-37
2022/10/22 10:05:26;;;;;;;11.90;7.00;;;;;;;12.21;97.65;99186.45;100799;1338;23332;-33
2022/10/22 10:07:51;;;;;;;12.40;6.60;;;;;;;12.18;98.31;99186.47;100791;1339;23785;-33
2022/10/22 10:10:24;;;;;;;10.60;6.60;;;;;;;12.25;98.58;99191.09;100742;1339;23086;-40
2022/10/22 10:12:56;;;;;;;10.40;6.30;;;;;;;12.35;98.12;99190.51;100709;1328;22957;-33
2022/10/22 10:15:27;;;;;;;9.50;7.30;;;;;;;12.36;98.30;99190.27;100705;1339;25263;-33
2022/10/22 10:18:06;;;;;;;18.00;8.40;;;;;;;12.43;98.49;99194.70;100737;1339;22542;-33
2022/10/22 10:20:39;;;;;;;12.70;6.50;;;;;;;12.49;98.45;99196.09;100827;1333;25584;-33
2022/10/22 10:23:05;;;;;;;;;;;;;;;12.53;97.97;99192.47;100804;1339;22946;-33
2022/10/22 10:25:36;;;;;;;8.50;6.30;;;;;;;12.50;98.21;99195.30;100713;1339;23020;-36
2022/10/22 10:28:09;;;;;;;6.20;4.30;;;;;;;12.52;98.02;99195.66;100806;1339;22749;-33
2022/10/22 10:30:37;;;;;;;12.50;7.50;;;;;;;12.51;98.11;99202.86;100796;1339;22639;-33
2022/10/22 10:33:14;;;;;;;8.20;4.60;;;;;;;12.46;98.22;99207.20;100724;1325;24292;-38
2022/10/22 10:35:51;;;;;;;11.80;6.10;;;;;;;12.48;98.50;99214.79;100794;1339;24293;-38
2022/10/22 10:38:21;;;;;;;10.10;6.90;;;;;;;12.44;98.46;99214.52;100688;1340;24523;-35
2022/10/22 10:40:49;;;;;;;10.10;6.90;;;;;;;12.40;98.23;99221.56;100663;1339;24865;-35
2022/10/22 10:43:20;;;;;;;12.60;8.00;;;;;;;12.37;98.06;99213.63;100772;1332;24369;-33
2022/10/22 10:45:53;;;;;;;15.40;7.80;;;;;;;12.34;97.65;99200.24;100768;1339;25321;-36
2022/10/22 10:48:23;;;;;;;22.40;10.10;;;;;;;12.26;97.82;99201.45;100823;1337;26511;-35
2022/10/22 10:50:56;;;;;;;9.50;6.50;;;;;;;12.26;98.22;99200.23;100773;1336;23104;-32
2022/10/22 10:53:43;;;;;;;10.60;7.50;;;;;;;12.29;98.31;99192.98;100750;1330;23246;-33
2022/10/22 10:56:13;;;;;;;11.20;7.90;;;;;;;12.37;96.97;99188.51;100676;1339;22764;-37
2022/10/22 10:59:02;;;;;;;16.00;7.10;;;;;;;12.38;96.72;99188.38;100832;1328;23216;-35
2022/10/22 11:01:31;;;;;;;19.30;10.30;;;;;;;12.35;96.85;99181.89;100759;1337;23108;-37
2022/10/22 11:04:17;;;;;;;15.40;7.90;;;;;;;12.46;96.82;99179.86;100677;1339;24653;-37
2022/10/22 11:06:42;;;;;;;8.70;4.30;;;;;;;12.49;97.07;99178.98;100697;1339;24379;-34
2022/10/22 11:09:22;;;;;;;13.50;8.70;;;;;;;12.57;97.94;99177.61;100713;1339;22745;-36
2022/10/22 11:11:50;;;;;;;21.40;12.10;;;;;;;12.72;97.69;99180.85;100782;1337;23230;-33
2022/10/22 11:14:20;;;;;;;14.80;9.70;;;;;;;12.77;97.82;99171.87;100792;1339;23252;-33
2022/10/22 11:16:52;;;;;;;6.30;4.30;;;;;;;12.80;96.88;99169.20;100746;1339;22604;-33
2022/10/22 11:19:19;;;;;;;14.80;10.60;;;;;;;12.82;96.35;99168.55;100593;1331;24564;-33